createdAt,value
2023-03-26T00:02:10.607Z,11.05
2023-03-26T00:04:42.750Z,15.82
2023-03-26T00:07:12.782Z,16.10
2023-03-26T00:09:42.143Z,25.02
2023-03-26T00:12:11.801Z,18.52
2023-03-26T00:14:41.272Z,20.58
2023-03-26T00:17:10.848Z,19.17
2023-03-26T00:19:40.476Z,12.07
2023-03-26T00:22:11.400Z,16.25
2023-03-26T00:24:40.835Z,10.02
2023-03-26T00:27:10.233Z,17.75
2023-03-26T00:29:40.110Z,12.25
2023-03-26T00:32:09.642Z,9.75
2023-03-26T00:34:41.552Z,16.90
2023-03-26T00:37:12.674Z,13.40
2023-03-26T00:39:42.917Z,14.57
2023-03-26T00:42:15.073Z,17.08
2023-03-26T00:44:44.533Z,22.20
2023-03-26T00:47:13.900Z,19.33
2023-03-26T00:49:43.591Z,22.35
2023-03-26T00:52:14.376Z,16.75
2023-03-26T00:54:44.120Z,20.55
2023-03-26T00:57:20.156Z,23.38
2023-03-26T00:59:55.129Z,20.27
2023-03-26T01:02:25.253Z,15.32
2023-03-26T01:04:58.040Z,18.83
2023-03-26T01:07:29.209Z,21.30
2023-03-26T01:10:00.535Z,24.70
2023-03-26T01:12:32.760Z,15.52
2023-03-26T01:15:04.688Z,23.55
2023-03-26T01:17:34.569Z,22.15
2023-03-26T01:20:15.899Z,16.60
2023-03-26T01:22:48.714Z,19.17
2023-03-26T01:25:18.486Z,16.50
2023-03-26T01:27:57.042Z,23.95
2023-03-26T01:30:44.739Z,17.63
2023-03-26T01:33:16.468Z,16.77
2023-03-26T01:36:01.663Z,19.10
2023-03-26T01:38:31.047Z,24.70
2023-03-26T01:41:07.505Z,25.17
2023-03-26T01:43:48.797Z,15.63
2023-03-26T01:46:19.476Z,17.00
2023-03-26T01:48:50.104Z,19.63
2023-03-26T01:51:29.111Z,17.15
2023-03-26T01:53:59.864Z,15.60
2023-03-26T01:56:48.057Z,18.23
2023-03-26T01:59:36.091Z,15.23
2023-03-26T02:02:16.937Z,18.35
2023-03-26T02:04:46.564Z,21.90
2023-03-26T02:07:25.255Z,21.65
2023-03-26T02:09:58.054Z,19.10
2023-03-26T02:12:28.495Z,24.50
2023-03-26T02:14:58.025Z,20.95
2023-03-26T02:17:30.224Z,19.70
2023-03-26T02:20:06.269Z,8.48
2023-03-26T02:22:41.429Z,20.13
2023-03-26T02:25:14.170Z,20.17
2023-03-26T02:27:43.703Z,22.00
2023-03-26T02:30:18.311Z,14.10
2023-03-26T02:32:52.506Z,12.05
2023-03-26T02:35:24.316Z,19.95
2023-03-26T02:38:00.687Z,14.75
2023-03-26T02:40:30.508Z,20.98
2023-03-26T02:43:00.956Z,23.60
2023-03-26T02:45:32.877Z,18.90
2023-03-26T02:48:05.097Z,20.23
2023-03-26T02:51:01.251Z,13.57
2023-03-26T02:53:41.466Z,21.52
2023-03-26T02:56:31.242Z,14.23
2023-03-26T02:59:14.062Z,19.13
2023-03-26T03:01:45.879Z,25.92
2023-03-26T03:04:18.094Z,21.92
2023-03-26T03:06:53.081Z,10.25
2023-03-26T03:09:23.543Z,11.48
2023-03-26T03:12:11.285Z,19.02
2023-03-26T03:14:40.944Z,17.35
2023-03-26T03:17:10.438Z,14.43
2023-03-26T03:19:40.279Z,16.13
2023-03-26T03:22:09.747Z,9.75
2023-03-26T03:24:40.064Z,19.52
2023-03-26T03:27:09.581Z,16.60
2023-03-26T03:29:47.947Z,15.45
2023-03-26T03:32:43.211Z,11.00
2023-03-26T03:35:13.093Z,26.20
2023-03-26T03:40:15.084Z,21.60
2023-03-26T03:42:53.916Z,21.15
2023-03-26T03:45:33.131Z,22.90
2023-03-26T03:48:19.068Z,23.38
2023-03-26T03:50:50.162Z,18.50
2023-03-26T03:53:27.162Z,23.77
2023-03-26T03:55:59.880Z,15.95
2023-03-26T03:58:48.382Z,29.42
2023-03-26T04:01:25.138Z,22.65
2023-03-26T04:04:04.014Z,16.83
2023-03-26T04:06:47.329Z,22.90
2023-03-26T04:09:18.679Z,15.40
2023-03-26T04:11:50.964Z,17.30
2023-03-26T04:14:49.358Z,18.90
2023-03-26T04:17:22.073Z,19.05
2023-03-26T04:19:55.123Z,13.27
2023-03-26T04:22:36.679Z,16.35
2023-03-26T04:25:09.528Z,12.98
2023-03-26T04:27:51.701Z,8.10
2023-03-26T04:30:27.498Z,12.55
2023-03-26T04:33:18.185Z,14.35
2023-03-26T04:35:50.029Z,15.00
2023-03-26T04:38:20.588Z,26.15
2023-03-26T04:40:53.574Z,16.60
2023-03-26T04:43:47.481Z,10.45
2023-03-26T04:46:43.951Z,24.42
2023-03-26T04:49:25.595Z,10.05
2023-03-26T04:51:55.291Z,13.50
2023-03-26T04:54:47.137Z,16.90
2023-03-26T04:57:40.204Z,19.75
2023-03-26T05:00:19.565Z,9.50
2023-03-26T05:02:58.074Z,13.88
2023-03-26T05:05:28.162Z,11.50
2023-03-26T05:08:00.504Z,12.63
2023-03-26T05:10:30.150Z,18.08
2023-03-26T05:13:07.897Z,10.20
2023-03-26T05:15:39.650Z,14.60
2023-03-26T05:18:17.253Z,15.02
2023-03-26T05:20:51.047Z,11.00
2023-03-26T05:23:21.057Z,18.88
2023-03-26T05:25:56.531Z,9.88
2023-03-26T05:28:28.406Z,17.95
2023-03-26T05:33:53.220Z,9.20
2023-03-26T05:36:22.804Z,12.77
2023-03-26T05:39:03.538Z,16.42
2023-03-26T05:41:53.082Z,11.68
2023-03-26T05:44:27.476Z,14.48
2023-03-26T05:46:57.163Z,10.98
2023-03-26T05:51:58.832Z,16.75
2023-03-26T05:54:38.078Z,16.23
2023-03-26T05:57:39.954Z,10.98
2023-03-26T06:00:28.812Z,10.27
2023-03-26T06:02:59.152Z,13.48
2023-03-26T06:05:54.511Z,11.48
2023-03-26T06:08:41.440Z,10.10
2023-03-26T06:11:12.825Z,14.88
2023-03-26T06:13:42.649Z,11.77
2023-03-26T06:16:27.757Z,15.48
2023-03-26T06:19:17.383Z,14.43
2023-03-26T06:21:58.259Z,16.70
2023-03-26T06:24:33.533Z,11.27
2023-03-26T06:27:26.475Z,17.95
2023-03-26T06:30:31.088Z,14.75
2023-03-26T06:33:07.939Z,19.17
2023-03-26T06:35:45.779Z,13.80
2023-03-26T06:38:17.014Z,12.80
2023-03-26T06:40:46.824Z,10.25
2023-03-26T06:43:28.342Z,12.35
2023-03-26T06:46:18.908Z,16.63
2023-03-26T06:49:08.377Z,13.20
2023-03-26T06:52:08.909Z,13.55
2023-03-26T06:55:01.829Z,14.98
2023-03-26T06:58:06.604Z,11.48
2023-03-26T07:00:57.931Z,11.45
2023-03-26T07:03:45.860Z,15.02
2023-03-26T07:06:34.826Z,18.13
2023-03-26T07:09:22.760Z,13.85
2023-03-26T07:12:15.549Z,17.08
2023-03-26T07:14:44.996Z,8.23
2023-03-26T07:17:33.208Z,14.30
2023-03-26T07:20:08.181Z,13.00
2023-03-26T07:22:38.300Z,13.45
2023-03-26T07:25:31.001Z,9.98
2023-03-26T07:28:34.082Z,11.23
2023-03-26T07:31:14.982Z,9.45
2023-03-26T07:33:56.166Z,14.85
2023-03-26T07:36:52.034Z,9.55
2023-03-26T07:40:00.459Z,14.45
2023-03-26T07:43:10.342Z,10.55
2023-03-26T07:45:58.416Z,8.75
2023-03-26T07:48:49.326Z,10.90
2023-03-26T07:51:34.174Z,10.10
2023-03-26T07:54:14.495Z,18.08
2023-03-26T07:57:06.749Z,11.65
2023-03-26T07:59:36.543Z,5.93
2023-03-26T08:02:47.481Z,11.00
2023-03-26T08:06:03.145Z,18.77
2023-03-26T08:08:59.549Z,11.40
2023-03-26T08:12:09.884Z,11.00
2023-03-26T08:14:39.289Z,11.98
2023-03-26T08:17:12.739Z,7.50
2023-03-26T08:19:45.630Z,16.15
2023-03-26T08:22:20.931Z,13.20
2023-03-26T08:25:09.011Z,8.57
2023-03-26T08:27:48.048Z,14.48
2023-03-26T08:30:21.742Z,9.90
2023-03-26T08:32:58.931Z,4.13
2023-03-26T08:35:30.100Z,12.95
2023-03-26T08:37:59.573Z,12.23
2023-03-26T08:40:41.460Z,9.93
2023-03-26T08:43:29.259Z,10.55
2023-03-26T08:46:01.675Z,10.02
2023-03-26T08:51:20.193Z,8.20
2023-03-26T08:54:09.322Z,15.02
2023-03-26T08:56:55.283Z,14.05
2023-03-26T08:59:42.880Z,4.80
2023-03-26T09:02:21.396Z,5.80
2023-03-26T09:05:14.975Z,12.63
2023-03-26T09:08:03.149Z,4.68
2023-03-26T09:10:38.748Z,9.02
2023-03-26T09:13:23.800Z,8.05
2023-03-26T09:15:56.064Z,9.70
2023-03-26T09:18:38.001Z,11.00
2023-03-26T09:21:07.541Z,11.60
2023-03-26T09:23:56.244Z,5.45
2023-03-26T09:26:28.066Z,6.20
2023-03-26T09:28:57.452Z,9.30
2023-03-26T09:31:29.987Z,6.15
2023-03-26T09:34:11.381Z,4.70
2023-03-26T09:37:06.013Z,5.07
2023-03-26T09:39:41.567Z,4.85
2023-03-26T09:42:12.670Z,5.78
2023-03-26T09:44:51.880Z,6.28
2023-03-26T09:47:24.405Z,3.33
2023-03-26T09:49:59.976Z,7.47
2023-03-26T09:52:44.600Z,4.55
2023-03-26T09:55:32.942Z,4.43
2023-03-26T09:58:08.690Z,2.58
2023-03-26T10:00:47.239Z,6.63
2023-03-26T10:03:17.524Z,5.25
2023-03-26T10:06:02.140Z,6.05
2023-03-26T10:08:34.286Z,2.70
2023-03-26T10:11:42.472Z,3.20
2023-03-26T10:14:18.334Z,3.70
2023-03-26T10:16:47.744Z,6.07
2023-03-26T10:19:23.496Z,4.78
2023-03-26T10:22:13.905Z,5.60
2023-03-26T10:25:02.184Z,3.05
2023-03-26T10:27:34.402Z,5.45
2023-03-26T10:30:28.316Z,5.75
2023-03-26T10:33:18.876Z,5.53
2023-03-26T10:35:53.687Z,4.18
2023-03-26T10:38:41.657Z,5.85
2023-03-26T10:41:16.489Z,4.00
2023-03-26T10:44:07.865Z,8.50
2023-03-26T10:46:38.083Z,4.22
2023-03-26T10:49:10.641Z,4.18
2023-03-26T10:51:47.050Z,7.93
2023-03-26T10:54:28.819Z,3.88
2023-03-26T10:56:58.581Z,5.05
2023-03-26T10:59:28.984Z,7.00
2023-03-26T11:02:00.265Z,4.15
2023-03-26T11:04:48.573Z,11.35
2023-03-26T11:07:24.379Z,6.80
2023-03-26T11:10:02.956Z,5.35
2023-03-26T11:12:36.666Z,4.13
2023-03-26T11:15:27.691Z,4.85
2023-03-26T11:18:15.600Z,4.85
2023-03-26T11:20:53.954Z,4.78
2023-03-26T11:23:32.112Z,3.38
2023-03-26T11:26:01.515Z,5.25
2023-03-26T11:28:40.202Z,5.35
2023-03-26T11:31:09.611Z,6.97
2023-03-26T11:33:49.799Z,5.50
2023-03-26T11:36:20.920Z,7.03
2023-03-26T11:38:52.325Z,6.32
2023-03-26T11:41:28.364Z,4.43
2023-03-26T11:44:11.477Z,7.82
2023-03-26T11:46:42.806Z,3.80
2023-03-26T11:49:13.797Z,2.55
2023-03-26T11:51:44.151Z,5.97
2023-03-26T11:54:15.338Z,3.33
2023-03-26T11:57:05.019Z,5.22
2023-03-26T11:59:57.340Z,4.38
2023-03-26T12:02:35.976Z,3.60
2023-03-26T12:05:20.513Z,3.60
2023-03-26T12:07:52.677Z,4.00
2023-03-26T12:10:25.241Z,4.00
2023-03-26T12:13:00.701Z,4.63
2023-03-26T12:15:31.175Z,7.38
2023-03-26T12:18:01.344Z,5.85
2023-03-26T12:20:36.185Z,3.13
2023-03-26T12:23:06.714Z,4.90
2023-03-26T12:25:40.364Z,6.75
2023-03-26T12:28:13.659Z,3.75
2023-03-26T12:30:45.162Z,4.55
2023-03-26T12:33:34.280Z,6.70
2023-03-26T12:36:23.352Z,5.00
2023-03-26T12:39:16.596Z,3.70
2023-03-26T12:44:43.346Z,4.32
2023-03-26T12:44:56.100Z,2.80
2023-03-26T12:47:58.313Z,3.92
2023-03-26T12:50:33.976Z,3.50
2023-03-26T12:53:23.873Z,3.20
2023-03-26T12:56:00.445Z,4.32
2023-03-26T12:58:51.320Z,3.63
2023-03-26T13:01:21.139Z,3.90
2023-03-26T13:04:14.250Z,2.58
2023-03-26T13:07:00.820Z,6.65
2023-03-26T13:09:43.696Z,3.95
2023-03-26T13:12:14.467Z,3.45
2023-03-26T13:14:52.615Z,5.25
2023-03-26T13:17:39.412Z,6.03
2023-03-26T13:20:13.468Z,3.45
2023-03-26T13:22:58.299Z,3.53
2023-03-26T13:25:37.717Z,4.97
2023-03-26T13:28:26.405Z,4.93
2023-03-26T13:31:14.443Z,7.18
2023-03-26T13:33:59.195Z,9.18
2023-03-26T13:36:46.906Z,5.07
2023-03-26T13:39:35.191Z,7.00
2023-03-26T13:42:13.377Z,6.45
2023-03-26T13:45:05.251Z,4.93
2023-03-26T13:47:41.175Z,7.47
2023-03-26T13:50:17.190Z,5.82
2023-03-26T13:52:56.068Z,5.60
2023-03-26T13:55:36.119Z,3.65
2023-03-26T13:58:05.880Z,3.30
2023-03-26T14:00:54.696Z,5.07
2023-03-26T14:03:29.185Z,4.38
2023-03-26T14:06:00.164Z,4.88
2023-03-26T14:08:41.980Z,5.88
2023-03-26T14:11:12.875Z,5.50
2023-03-26T14:13:57.651Z,5.40
2023-03-26T14:16:30.979Z,7.20
2023-03-26T14:19:15.409Z,4.15
2023-03-26T14:22:03.687Z,7.97
2023-03-26T14:24:46.211Z,13.02
2023-03-26T14:27:29.015Z,11.15
2023-03-26T14:30:20.218Z,14.88
2023-03-26T14:32:52.789Z,12.32
2023-03-26T14:35:23.573Z,12.13
2023-03-26T14:37:57.591Z,19.20
2023-03-26T14:40:45.436Z,23.35
2023-03-26T14:43:36.577Z,10.82
2023-03-26T14:46:29.695Z,11.30
2023-03-26T14:49:07.779Z,17.15
2023-03-26T14:51:46.200Z,7.60
2023-03-26T14:54:27.868Z,11.10
2023-03-26T14:57:10.005Z,13.23
2023-03-26T14:59:45.934Z,14.75
2023-03-26T15:02:27.575Z,12.50
2023-03-26T15:05:19.592Z,16.70
2023-03-26T15:08:07.659Z,10.27
2023-03-26T15:11:02.692Z,12.85
2023-03-26T15:13:51.915Z,14.38
2023-03-26T15:16:39.904Z,12.18
2023-03-26T15:19:21.329Z,19.17
2023-03-26T15:21:59.577Z,10.80
2023-03-26T15:24:47.791Z,9.23
2023-03-26T15:27:35.992Z,11.45
2023-03-26T15:30:25.389Z,14.63
2023-03-26T15:32:59.130Z,8.48
2023-03-26T15:35:51.918Z,20.73
2023-03-26T15:40:55.196Z,8.02
2023-03-26T15:43:24.889Z,6.82
2023-03-26T15:45:54.430Z,10.02
2023-03-26T15:48:26.043Z,16.92
2023-03-26T15:51:01.620Z,7.97
2023-03-26T15:53:38.462Z,11.93
2023-03-26T15:56:14.147Z,9.27
2023-03-26T15:58:56.769Z,21.27
2023-03-26T16:04:15.110Z,5.03
2023-03-26T16:06:46.724Z,12.57
2023-03-26T16:09:35.414Z,9.20
2023-03-26T16:12:25.105Z,9.63
2023-03-26T16:15:17.613Z,6.30
2023-03-26T16:18:09.444Z,10.50
2023-03-26T16:20:38.920Z,11.52
2023-03-26T16:23:08.373Z,9.13
2023-03-26T16:25:55.801Z,6.32
2023-03-26T16:28:33.733Z,14.80
2023-03-26T16:31:35.123Z,8.77
2023-03-26T16:34:09.593Z,7.50
2023-03-26T16:36:50.107Z,10.63
2023-03-26T16:39:21.721Z,11.40
2023-03-26T16:41:51.464Z,10.40
2023-03-26T16:44:26.385Z,12.73
2023-03-26T16:47:07.809Z,12.48
2023-03-26T16:50:08.440Z,12.05
2023-03-26T16:52:46.662Z,6.53
2023-03-26T16:55:24.931Z,8.10
2023-03-26T16:57:57.777Z,8.25
2023-03-26T17:00:45.068Z,13.52
2023-03-26T17:03:32.200Z,14.43
2023-03-26T17:06:06.217Z,9.85
2023-03-26T17:08:37.095Z,9.70
2023-03-26T17:11:30.628Z,2.92
2023-03-26T17:14:03.906Z,7.45
2023-03-26T17:16:46.131Z,12.75
2023-03-26T17:19:31.068Z,5.40
2023-03-26T17:22:26.840Z,8.43
2023-03-26T17:25:04.849Z,11.35
2023-03-26T17:28:08.861Z,9.27
2023-03-26T17:30:50.649Z,7.40
2023-03-26T17:33:23.421Z,9.10
2023-03-26T17:35:53.891Z,8.07
2023-03-26T17:38:26.862Z,11.27
2023-03-26T17:41:00.431Z,9.30
2023-03-26T17:43:36.162Z,9.63
2023-03-26T17:46:15.949Z,4.97
2023-03-26T17:48:47.826Z,9.50
2023-03-26T17:51:26.357Z,10.25
2023-03-26T17:53:55.782Z,8.25
2023-03-26T17:56:27.856Z,11.23
2023-03-26T17:59:11.443Z,14.20
2023-03-26T18:01:44.821Z,10.10
2023-03-26T18:04:18.763Z,10.77
2023-03-26T18:06:55.165Z,12.02
2023-03-26T18:09:37.237Z,7.10
2023-03-26T18:12:06.793Z,9.80
2023-03-26T18:14:44.966Z,6.70
2023-03-26T18:17:14.755Z,9.45
2023-03-26T18:19:55.387Z,7.53
2023-03-26T18:22:29.218Z,4.10
2023-03-26T18:25:01.706Z,7.70
2023-03-26T18:27:36.757Z,9.25
2023-03-26T18:30:16.491Z,11.02
2023-03-26T18:33:00.191Z,15.40
2023-03-26T18:35:38.005Z,8.65
2023-03-26T18:38:07.608Z,9.35
2023-03-26T18:40:42.642Z,10.30
2023-03-26T18:43:32.599Z,11.80
2023-03-26T18:46:04.262Z,7.00
2023-03-26T18:48:36.325Z,10.63
2023-03-26T18:51:07.421Z,8.55
2023-03-26T18:53:51.328Z,4.43
2023-03-26T18:56:30.609Z,9.70
2023-03-26T18:59:01.624Z,11.25
2023-03-26T19:01:35.481Z,8.60
2023-03-26T19:04:07.684Z,9.30
2023-03-26T19:06:38.529Z,5.03
2023-03-26T19:09:23.817Z,5.15
2023-03-26T19:12:01.587Z,9.05
2023-03-26T19:14:35.488Z,7.43
2023-03-26T19:17:06.333Z,5.10
2023-03-26T19:19:37.362Z,6.45
2023-03-26T19:22:07.784Z,6.40
2023-03-26T19:24:37.472Z,12.15
2023-03-26T19:27:07.497Z,4.78
2023-03-26T19:29:38.005Z,8.85
2023-03-26T19:32:19.353Z,9.40
2023-03-26T19:34:50.846Z,7.43
2023-03-26T19:37:21.802Z,9.63
2023-03-26T19:39:53.113Z,6.85
2023-03-26T19:45:23.273Z,8.18
2023-03-26T19:48:00.527Z,8.50
2023-03-26T19:50:38.807Z,4.45
2023-03-26T19:51:18.124Z,8.77
2023-03-26T19:53:17.032Z,4.25
2023-03-26T19:56:07.569Z,6.05
2023-03-26T19:58:38.215Z,4.80
2023-03-26T20:01:07.943Z,12.60
2023-03-26T20:03:45.479Z,4.13
2023-03-26T20:06:41.810Z,10.48
2023-03-26T20:09:16.790Z,8.25
2023-03-26T20:11:47.227Z,8.80
2023-03-26T20:14:24.500Z,4.68
2023-03-26T20:16:54.053Z,5.63
2023-03-26T20:19:24.090Z,4.10
2023-03-26T20:21:53.524Z,6.10
2023-03-26T20:24:24.922Z,8.13
2023-03-26T20:26:54.552Z,12.20
2023-03-26T20:29:24.065Z,10.05
2023-03-26T20:31:53.584Z,10.70
2023-03-26T20:34:24.704Z,6.18
2023-03-26T20:36:55.486Z,10.18
2023-03-26T20:39:25.706Z,8.70
2023-03-26T20:41:56.441Z,4.95
2023-03-26T20:44:27.038Z,8.80
2023-03-26T20:46:58.988Z,20.02
2023-03-26T20:49:29.392Z,11.40
2023-03-26T20:51:59.743Z,6.18
2023-03-26T20:54:29.805Z,8.10
2023-03-26T20:56:59.521Z,8.00
2023-03-26T20:59:29.556Z,14.30
2023-03-26T21:02:00.389Z,12.82
2023-03-26T21:04:30.409Z,12.77
2023-03-26T21:07:11.128Z,13.43
2023-03-26T21:09:47.015Z,13.07
2023-03-26T21:12:38.371Z,5.10
2023-03-26T21:15:16.781Z,6.05
2023-03-26T21:17:53.277Z,9.50
2023-03-26T21:20:23.046Z,6.88
2023-03-26T21:23:05.843Z,9.60
2023-03-26T21:25:38.590Z,9.55
2023-03-26T21:28:11.409Z,9.05
2023-03-26T21:30:41.007Z,8.70
2023-03-26T21:33:10.482Z,5.20
2023-03-26T21:35:40.159Z,5.03
2023-03-26T21:38:09.855Z,10.32
2023-03-26T21:40:44.472Z,11.13
2023-03-26T21:43:17.032Z,6.45
2023-03-26T21:45:48.147Z,3.85
2023-03-26T21:48:18.357Z,4.75
2023-03-26T21:50:47.935Z,3.80
2023-03-26T21:53:18.217Z,7.70
2023-03-26T21:56:07.742Z,7.68
2023-03-26T21:58:42.899Z,10.07
2023-03-26T22:01:12.368Z,7.15
2023-03-26T22:03:57.899Z,7.22
2023-03-26T22:06:43.127Z,9.02
2023-03-26T22:09:16.572Z,7.03
2023-03-26T22:11:47.900Z,10.45
2023-03-26T22:14:17.729Z,5.50
2023-03-26T22:16:47.135Z,10.15
2023-03-26T22:19:17.157Z,10.48
2023-03-26T22:21:46.575Z,8.82
2023-03-26T22:24:15.982Z,7.60
2023-03-26T22:26:45.335Z,8.63
2023-03-26T22:29:15.076Z,10.23
2023-03-26T22:31:45.227Z,6.72
2023-03-26T22:34:14.756Z,4.13
2023-03-26T22:36:44.159Z,8.32
2023-03-26T22:39:13.845Z,7.60
2023-03-26T22:41:43.236Z,9.18
2023-03-26T22:44:20.351Z,6.85
2023-03-26T22:46:51.772Z,5.88
2023-03-26T22:49:21.483Z,10.52
2023-03-26T22:51:50.920Z,11.63
2023-03-26T22:54:20.462Z,6.65
2023-03-26T22:56:49.858Z,9.75
2023-03-26T22:59:19.223Z,9.57
2023-03-26T23:01:48.998Z,9.55
2023-03-26T23:04:31.286Z,13.20
2023-03-26T23:07:01.791Z,11.70
2023-03-26T23:09:31.321Z,4.43
2023-03-26T23:12:00.822Z,7.55
2023-03-26T23:14:32.512Z,5.07
2023-03-26T23:17:02.264Z,5.35
2023-03-26T23:19:34.188Z,4.22
2023-03-26T23:22:03.599Z,7.35
2023-03-26T23:24:32.982Z,6.97
2023-03-26T23:27:02.348Z,7.53
2023-03-26T23:29:31.954Z,7.43
2023-03-26T23:32:01.437Z,11.00
2023-03-26T23:34:32.174Z,2.05
2023-03-26T23:37:02.003Z,9.23
2023-03-26T23:39:33.770Z,7.88
2023-03-26T23:42:03.191Z,4.45
2023-03-26T23:44:33.160Z,13.13
2023-03-26T23:47:02.568Z,9.50
2023-03-26T23:49:32.045Z,7.25
2023-03-26T23:52:02.151Z,8.70
2023-03-26T23:54:31.544Z,2.60
2023-03-26T23:57:01.023Z,6.40
2023-03-26T23:59:30.491Z,5.13
